sensor_id;sensor_type;location;lat;lon;timestamp;temperature;humidity
64689;DHT22;62504;46.070;14.492;2022-08-03T00:01:40;20.70;99.90
64689;DHT22;62504;46.070;14.492;2022-08-03T00:04:07;20.70;99.90
64689;DHT22;62504;46.070;14.492;2022-08-03T00:06:33;20.70;99.90
64689;DHT22;62504;46.070;14.492;2022-08-03T00:08:59;20.80;99.90
64689;DHT22;62504;46.070;14.492;2022-08-03T00:11:24;21.00;99.90
64689;DHT22;62504;46.070;14.492;2022-08-03T00:13:51;20.90;99.90
64689;DHT22;62504;46.070;14.492;2022-08-03T00:16:17;21.00;99.90
64689;DHT22;62504;46.070;14.492;2022-08-03T00:18:43;20.70;99.90
64689;DHT22;62504;46.070;14.492;2022-08-03T00:21:08;20.70;99.90
64689;DHT22;62504;46.070;14.492;2022-08-03T00:23:34;20.50;99.90
64689;DHT22;62504;46.070;14.492;2022-08-03T00:26:00;20.60;99.90
64689;DHT22;62504;46.070;14.492;2022-08-03T00:28:26;20.60;99.90
64689;DHT22;62504;46.070;14.492;2022-08-03T00:30:52;20.60;99.90
64689;DHT22;62504;46.070;14.492;2022-08-03T00:33:18;20.50;99.90
64689;DHT22;62504;46.070;14.492;2022-08-03T00:35:44;20.50;99.90
64689;DHT22;62504;46.070;14.492;2022-08-03T00:38:09;20.40;99.90
64689;DHT22;62504;46.070;14.492;2022-08-03T00:40:35;20.40;99.90
64689;DHT22;62504;46.070;14.492;2022-08-03T00:43:03;20.40;99.90
64689;DHT22;62504;46.070;14.492;2022-08-03T00:45:40;20.40;99.90
64689;DHT22;62504;46.070;14.492;2022-08-03T00:48:07;20.30;99.90
64689;DHT22;62504;46.070;14.492;2022-08-03T00:50:34;20.40;99.90
64689;DHT22;62504;46.070;14.492;2022-08-03T00:53:02;20.60;99.90
64689;DHT22;62504;46.070;14.492;2022-08-03T00:55:29;20.50;99.90
64689;DHT22;62504;46.070;14.492;2022-08-03T00:57:56;20.70;99.90
64689;DHT22;62504;46.070;14.492;2022-08-03T01:00:23;20.70;99.90
64689;DHT22;62504;46.070;14.492;2022-08-03T01:02:50;20.70;99.90
64689;DHT22;62504;46.070;14.492;2022-08-03T01:05:16;20.50;99.90
64689;DHT22;62504;46.070;14.492;2022-08-03T01:10:53;20.60;99.90
64689;DHT22;62504;46.070;14.492;2022-08-03T01:16:07;20.50;99.90
64689;DHT22;62504;46.070;14.492;2022-08-03T01:18:49;20.40;99.90
64689;DHT22;62504;46.070;14.492;2022-08-03T01:21:23;20.40;99.90
64689;DHT22;62504;46.070;14.492;2022-08-03T01:32:01;20.00;99.90
64689;DHT22;62504;46.070;14.492;2022-08-03T01:34:31;20.10;99.90
64689;DHT22;62504;46.070;14.492;2022-08-03T01:36:58;20.10;99.90
64689;DHT22;62504;46.070;14.492;2022-08-03T01:39:27;20.10;99.90
64689;DHT22;62504;46.070;14.492;2022-08-03T01:41:57;20.00;99.90
64689;DHT22;62504;46.070;14.492;2022-08-03T01:44:25;20.00;99.90
64689;DHT22;62504;46.070;14.492;2022-08-03T01:46:55;20.00;99.90
64689;DHT22;62504;46.070;14.492;2022-08-03T01:49:23;20.00;99.90
64689;DHT22;62504;46.070;14.492;2022-08-03T01:51:50;19.90;99.90
64689;DHT22;62504;46.070;14.492;2022-08-03T01:54:17;19.90;99.90
64689;DHT22;62504;46.070;14.492;2022-08-03T01:56:44;19.90;99.90
64689;DHT22;62504;46.070;14.492;2022-08-03T01:59:11;20.00;99.90
64689;DHT22;62504;46.070;14.492;2022-08-03T02:01:39;19.90;99.90
64689;DHT22;62504;46.070;14.492;2022-08-03T02:04:06;19.90;99.90
64689;DHT22;62504;46.070;14.492;2022-08-03T02:06:33;20.10;99.90
64689;DHT22;62504;46.070;14.492;2022-08-03T02:09:01;19.90;99.90
64689;DHT22;62504;46.070;14.492;2022-08-03T02:11:29;20.10;99.90
64689;DHT22;62504;46.070;14.492;2022-08-03T02:13:57;20.10;99.90
64689;DHT22;62504;46.070;14.492;2022-08-03T02:16:25;20.20;99.90
64689;DHT22;62504;46.070;14.492;2022-08-03T02:18:53;20.20;99.90
64689;DHT22;62504;46.070;14.492;2022-08-03T02:21:20;20.20;99.90
64689;DHT22;62504;46.070;14.492;2022-08-03T02:23:46;20.00;99.90
64689;DHT22;62504;46.070;14.492;2022-08-03T02:26:14;20.00;99.90
64689;DHT22;62504;46.070;14.492;2022-08-03T02:28:45;19.90;99.90
64689;DHT22;62504;46.070;14.492;2022-08-03T02:31:17;19.90;99.90
64689;DHT22;62504;46.070;14.492;2022-08-03T02:33:49;19.80;99.90
64689;DHT22;62504;46.070;14.492;2022-08-03T02:36:19;19.80;99.90
64689;DHT22;62504;46.070;14.492;2022-08-03T02:38:49;19.80;99.90
64689;DHT22;62504;46.070;14.492;2022-08-03T02:41:19;19.90;99.90
64689;DHT22;62504;46.070;14.492;2022-08-03T02:43:50;19.70;99.90
64689;DHT22;62504;46.070;14.492;2022-08-03T02:46:19;19.60;99.90
64689;DHT22;62504;46.070;14.492;2022-08-03T02:48:47;19.60;99.90
64689;DHT22;62504;46.070;14.492;2022-08-03T02:51:16;19.70;99.90
64689;DHT22;62504;46.070;14.492;2022-08-03T02:53:44;19.80;99.90
64689;DHT22;62504;46.070;14.492;2022-08-03T02:56:11;19.90;99.90
64689;DHT22;62504;46.070;14.492;2022-08-03T02:58:38;19.80;99.90
64689;DHT22;62504;46.070;14.492;2022-08-03T03:01:05;19.70;99.90
64689;DHT22;62504;46.070;14.492;2022-08-03T03:03:32;19.70;99.90
64689;DHT22;62504;46.070;14.492;2022-08-03T03:05:59;19.80;99.90
64689;DHT22;62504;46.070;14.492;2022-08-03T03:08:57;19.70;99.90
64689;DHT22;62504;46.070;14.492;2022-08-03T03:11:24;19.70;99.90
64689;DHT22;62504;46.070;14.492;2022-08-03T03:13:51;19.70;99.90
64689;DHT22;62504;46.070;14.492;2022-08-03T03:16:17;19.60;99.90
64689;DHT22;62504;46.070;14.492;2022-08-03T03:18:44;19.70;99.90
64689;DHT22;62504;46.070;14.492;2022-08-03T03:21:12;19.80;99.90
64689;DHT22;62504;46.070;14.492;2022-08-03T03:23:39;19.70;99.90
64689;DHT22;62504;46.070;14.492;2022-08-03T03:26:06;19.50;99.90
64689;DHT22;62504;46.070;14.492;2022-08-03T03:28:35;19.40;99.90
64689;DHT22;62504;46.070;14.492;2022-08-03T03:31:06;19.30;99.90
64689;DHT22;62504;46.070;14.492;2022-08-03T03:33:36;19.30;99.90
64689;DHT22;62504;46.070;14.492;2022-08-03T03:36:04;19.20;99.90
64689;DHT22;62504;46.070;14.492;2022-08-03T03:38:31;19.10;99.90
64689;DHT22;62504;46.070;14.492;2022-08-03T03:40:58;19.10;99.90
64689;DHT22;62504;46.070;14.492;2022-08-03T03:43:24;19.00;99.90
64689;DHT22;62504;46.070;14.492;2022-08-03T03:45:50;19.10;99.90
64689;DHT22;62504;46.070;14.492;2022-08-03T03:48:18;19.20;99.90
64689;DHT22;62504;46.070;14.492;2022-08-03T03:50:44;19.30;99.90
64689;DHT22;62504;46.070;14.492;2022-08-03T03:53:11;19.30;99.90
64689;DHT22;62504;46.070;14.492;2022-08-03T03:55:38;19.20;99.90
64689;DHT22;62504;46.070;14.492;2022-08-03T03:58:05;19.30;99.90
64689;DHT22;62504;46.070;14.492;2022-08-03T04:00:30;19.20;99.90
64689;DHT22;62504;46.070;14.492;2022-08-03T04:02:56;19.10;99.90
64689;DHT22;62504;46.070;14.492;2022-08-03T04:05:22;19.00;99.90
64689;DHT22;62504;46.070;14.492;2022-08-03T04:08:20;19.10;99.90
64689;DHT22;62504;46.070;14.492;2022-08-03T04:11:11;19.20;99.90
64689;DHT22;62504;46.070;14.492;2022-08-03T04:13:46;19.30;99.90
64689;DHT22;62504;46.070;14.492;2022-08-03T04:16:17;19.30;99.90
64689;DHT22;62504;46.070;14.492;2022-08-03T04:18:45;19.30;99.90
64689;DHT22;62504;46.070;14.492;2022-08-03T04:24:51;19.30;99.90
64689;DHT22;62504;46.070;14.492;2022-08-03T04:27:22;19.30;99.90
64689;DHT22;62504;46.070;14.492;2022-08-03T04:29:51;19.40;99.90
64689;DHT22;62504;46.070;14.492;2022-08-03T04:32:18;19.40;99.90
64689;DHT22;62504;46.070;14.492;2022-08-03T04:34:46;19.40;99.90
64689;DHT22;62504;46.070;14.492;2022-08-03T04:37:16;19.50;99.90
64689;DHT22;62504;46.070;14.492;2022-08-03T04:39:43;19.70;99.90
64689;DHT22;62504;46.070;14.492;2022-08-03T04:42:14;19.80;99.90
64689;DHT22;62504;46.070;14.492;2022-08-03T04:44:41;19.70;99.90
64689;DHT22;62504;46.070;14.492;2022-08-03T04:47:08;19.70;99.90
64689;DHT22;62504;46.070;14.492;2022-08-03T04:49:36;19.80;99.90
64689;DHT22;62504;46.070;14.492;2022-08-03T04:52:03;19.80;99.90
64689;DHT22;62504;46.070;14.492;2022-08-03T04:54:29;19.90;99.90
64689;DHT22;62504;46.070;14.492;2022-08-03T04:56:55;19.90;99.90
64689;DHT22;62504;46.070;14.492;2022-08-03T04:59:21;19.90;99.90
64689;DHT22;62504;46.070;14.492;2022-08-03T05:01:46;20.00;99.90
64689;DHT22;62504;46.070;14.492;2022-08-03T05:04:12;20.10;99.90
64689;DHT22;62504;46.070;14.492;2022-08-03T05:06:38;20.10;99.90
64689;DHT22;62504;46.070;14.492;2022-08-03T05:09:04;20.30;99.90
64689;DHT22;62504;46.070;14.492;2022-08-03T05:11:30;19.90;99.90
64689;DHT22;62504;46.070;14.492;2022-08-03T05:13:55;20.10;99.90
64689;DHT22;62504;46.070;14.492;2022-08-03T05:16:21;20.10;99.90
64689;DHT22;62504;46.070;14.492;2022-08-03T05:18:47;20.30;99.90
64689;DHT22;62504;46.070;14.492;2022-08-03T05:22:17;20.30;99.90
64689;DHT22;62504;46.070;14.492;2022-08-03T05:24:42;20.60;99.90
64689;DHT22;62504;46.070;14.492;2022-08-03T05:27:08;20.50;99.90
64689;DHT22;62504;46.070;14.492;2022-08-03T05:29:34;20.60;99.90
64689;DHT22;62504;46.070;14.492;2022-08-03T05:31:59;20.50;99.90
64689;DHT22;62504;46.070;14.492;2022-08-03T05:34:26;20.60;99.90
64689;DHT22;62504;46.070;14.492;2022-08-03T05:36:52;20.70;99.90
64689;DHT22;62504;46.070;14.492;2022-08-03T05:39:17;20.80;99.90
64689;DHT22;62504;46.070;14.492;2022-08-03T05:41:43;20.80;99.90
64689;DHT22;62504;46.070;14.492;2022-08-03T05:44:08;20.60;99.90
64689;DHT22;62504;46.070;14.492;2022-08-03T05:46:34;20.00;99.90
64689;DHT22;62504;46.070;14.492;2022-08-03T05:49:00;20.00;99.90
64689;DHT22;62504;46.070;14.492;2022-08-03T05:51:25;20.50;99.90
64689;DHT22;62504;46.070;14.492;2022-08-03T05:53:52;20.80;99.90
64689;DHT22;62504;46.070;14.492;2022-08-03T05:56:21;20.90;99.90
64689;DHT22;62504;46.070;14.492;2022-08-03T05:58:47;21.10;99.90
64689;DHT22;62504;46.070;14.492;2022-08-03T06:01:14;21.30;99.90
64689;DHT22;62504;46.070;14.492;2022-08-03T06:03:40;21.40;99.90
64689;DHT22;62504;46.070;14.492;2022-08-03T06:06:06;21.00;99.90
64689;DHT22;62504;46.070;14.492;2022-08-03T06:08:32;21.00;99.90
64689;DHT22;62504;46.070;14.492;2022-08-03T06:10:58;21.10;99.90
64689;DHT22;62504;46.070;14.492;2022-08-03T06:13:24;21.30;99.90
64689;DHT22;62504;46.070;14.492;2022-08-03T06:15:49;21.60;99.90
64689;DHT22;62504;46.070;14.492;2022-08-03T06:18:15;21.60;99.90
64689;DHT22;62504;46.070;14.492;2022-08-03T06:27:57;21.90;99.90
64689;DHT22;62504;46.070;14.492;2022-08-03T06:30:24;21.90;99.90
64689;DHT22;62504;46.070;14.492;2022-08-03T06:32:49;22.00;99.90
64689;DHT22;62504;46.070;14.492;2022-08-03T06:35:15;21.80;99.90
64689;DHT22;62504;46.070;14.492;2022-08-03T06:37:48;22.10;99.90
64689;DHT22;62504;46.070;14.492;2022-08-03T06:40:18;22.30;99.90
64689;DHT22;62504;46.070;14.492;2022-08-03T06:42:44;22.30;99.90
64689;DHT22;62504;46.070;14.492;2022-08-03T06:45:11;22.40;99.90
64689;DHT22;62504;46.070;14.492;2022-08-03T06:47:38;22.50;99.90
64689;DHT22;62504;46.070;14.492;2022-08-03T06:50:05;22.70;99.90
64689;DHT22;62504;46.070;14.492;2022-08-03T06:52:31;22.70;99.90
64689;DHT22;62504;46.070;14.492;2022-08-03T06:54:57;22.80;99.90
64689;DHT22;62504;46.070;14.492;2022-08-03T06:57:23;22.80;99.90
64689;DHT22;62504;46.070;14.492;2022-08-03T06:59:49;22.80;99.90
64689;DHT22;62504;46.070;14.492;2022-08-03T07:02:15;22.70;99.90
64689;DHT22;62504;46.070;14.492;2022-08-03T07:04:41;22.80;99.90
64689;DHT22;62504;46.070;14.492;2022-08-03T07:07:06;23.00;99.90
64689;DHT22;62504;46.070;14.492;2022-08-03T07:09:32;23.10;99.90
64689;DHT22;62504;46.070;14.492;2022-08-03T07:11:57;22.80;99.90
64689;DHT22;62504;46.070;14.492;2022-08-03T07:14:23;23.00;99.90
64689;DHT22;62504;46.070;14.492;2022-08-03T07:16:49;23.30;99.90
64689;DHT22;62504;46.070;14.492;2022-08-03T07:19:15;23.50;99.90
64689;DHT22;62504;46.070;14.492;2022-08-03T07:21:40;23.70;99.90
64689;DHT22;62504;46.070;14.492;2022-08-03T07:24:06;23.80;99.90
64689;DHT22;62504;46.070;14.492;2022-08-03T07:26:31;24.00;99.90
64689;DHT22;62504;46.070;14.492;2022-08-03T07:28:57;23.90;99.90
64689;DHT22;62504;46.070;14.492;2022-08-03T07:31:25;23.60;99.90
64689;DHT22;62504;46.070;14.492;2022-08-03T07:33:50;23.50;99.90
64689;DHT22;62504;46.070;14.492;2022-08-03T07:36:16;23.80;99.90
64689;DHT22;62504;46.070;14.492;2022-08-03T07:38:42;24.00;99.90
64689;DHT22;62504;46.070;14.492;2022-08-03T07:41:07;24.30;99.90
64689;DHT22;62504;46.070;14.492;2022-08-03T07:43:33;24.30;99.90
64689;DHT22;62504;46.070;14.492;2022-08-03T07:45:58;24.90;99.90
64689;DHT22;62504;46.070;14.492;2022-08-03T07:48:24;25.80;99.90
64689;DHT22;62504;46.070;14.492;2022-08-03T07:50:50;27.00;99.90
64689;DHT22;62504;46.070;14.492;2022-08-03T07:53:17;26.70;99.90
64689;DHT22;62504;46.070;14.492;2022-08-03T07:55:43;26.70;99.90
64689;DHT22;62504;46.070;14.492;2022-08-03T07:58:10;26.80;99.90
64689;DHT22;62504;46.070;14.492;2022-08-03T08:00:42;26.60;99.90
64689;DHT22;62504;46.070;14.492;2022-08-03T08:03:09;27.20;99.90
64689;DHT22;62504;46.070;14.492;2022-08-03T08:05:35;25.70;99.90
64689;DHT22;62504;46.070;14.492;2022-08-03T08:08:01;26.20;99.90
64689;DHT22;62504;46.070;14.492;2022-08-03T08:10:27;27.30;99.90
64689;DHT22;62504;46.070;14.492;2022-08-03T08:12:53;28.10;99.90
64689;DHT22;62504;46.070;14.492;2022-08-03T08:15:19;28.60;99.90
64689;DHT22;62504;46.070;14.492;2022-08-03T08:20:16;27.60;99.90
64689;DHT22;62504;46.070;14.492;2022-08-03T08:22:42;26.10;99.90
64689;DHT22;62504;46.070;14.492;2022-08-03T08:25:08;26.30;99.90
64689;DHT22;62504;46.070;14.492;2022-08-03T08:27:43;27.90;99.90
64689;DHT22;62504;46.070;14.492;2022-08-03T08:30:10;28.80;99.90
64689;DHT22;62504;46.070;14.492;2022-08-03T08:32:36;28.30;99.90
64689;DHT22;62504;46.070;14.492;2022-08-03T08:35:03;27.80;99.90
64689;DHT22;62504;46.070;14.492;2022-08-03T08:37:28;30.00;99.90
64689;DHT22;62504;46.070;14.492;2022-08-03T08:39:55;31.20;99.90
64689;DHT22;62504;46.070;14.492;2022-08-03T08:42:21;31.60;99.80
64689;DHT22;62504;46.070;14.492;2022-08-03T08:44:46;31.70;99.70
64689;DHT22;62504;46.070;14.492;2022-08-03T08:47:13;33.20;97.40
64689;DHT22;62504;46.070;14.492;2022-08-03T08:49:40;31.70;97.00
64689;DHT22;62504;46.070;14.492;2022-08-03T08:52:09;30.60;99.50
64689;DHT22;62504;46.070;14.492;2022-08-03T08:54:37;29.90;99.90
64689;DHT22;62504;46.070;14.492;2022-08-03T08:57:06;29.50;99.90
64689;DHT22;62504;46.070;14.492;2022-08-03T08:59:32;29.40;99.90
64689;DHT22;62504;46.070;14.492;2022-08-03T09:02:01;28.90;99.90
64689;DHT22;62504;46.070;14.492;2022-08-03T09:04:30;28.50;99.90
64689;DHT22;62504;46.070;14.492;2022-08-03T09:06:56;27.40;99.90
64689;DHT22;62504;46.070;14.492;2022-08-03T09:09:22;27.20;99.90
64689;DHT22;62504;46.070;14.492;2022-08-03T09:11:48;27.60;99.90
64689;DHT22;62504;46.070;14.492;2022-08-03T09:14:14;27.60;99.90
64689;DHT22;62504;46.070;14.492;2022-08-03T09:17:00;27.40;99.90
64689;DHT22;62504;46.070;14.492;2022-08-03T09:19:30;27.90;99.90
64689;DHT22;62504;46.070;14.492;2022-08-03T09:22:15;27.80;99.90
64689;DHT22;62504;46.070;14.492;2022-08-03T09:25:04;27.60;99.90
64689;DHT22;62504;46.070;14.492;2022-08-03T09:27:41;27.80;99.90
64689;DHT22;62504;46.070;14.492;2022-08-03T09:30:16;27.60;99.90
64689;DHT22;62504;46.070;14.492;2022-08-03T09:32:42;27.50;99.90
64689;DHT22;62504;46.070;14.492;2022-08-03T09:35:09;27.40;99.90
64689;DHT22;62504;46.070;14.492;2022-08-03T09:37:36;27.70;99.90
64689;DHT22;62504;46.070;14.492;2022-08-03T09:40:02;27.80;99.90
64689;DHT22;62504;46.070;14.492;2022-08-03T09:42:27;28.40;99.90
64689;DHT22;62504;46.070;14.492;2022-08-03T09:44:53;28.80;99.90
64689;DHT22;62504;46.070;14.492;2022-08-03T09:47:33;28.90;99.90
64689;DHT22;62504;46.070;14.492;2022-08-03T09:50:03;29.30;99.90
64689;DHT22;62504;46.070;14.492;2022-08-03T09:52:38;29.40;99.90
64689;DHT22;62504;46.070;14.492;2022-08-03T09:55:11;29.00;99.90
64689;DHT22;62504;46.070;14.492;2022-08-03T09:57:38;28.50;99.90
64689;DHT22;62504;46.070;14.492;2022-08-03T10:00:13;28.70;99.90
64689;DHT22;62504;46.070;14.492;2022-08-03T10:02:40;28.00;99.90
64689;DHT22;62504;46.070;14.492;2022-08-03T10:05:08;28.10;99.90
64689;DHT22;62504;46.070;14.492;2022-08-03T10:07:42;28.40;99.90
64689;DHT22;62504;46.070;14.492;2022-08-03T10:10:08;28.10;99.90
64689;DHT22;62504;46.070;14.492;2022-08-03T10:12:36;28.20;99.90
64689;DHT22;62504;46.070;14.492;2022-08-03T10:15:02;28.10;99.90
64689;DHT22;62504;46.070;14.492;2022-08-03T10:17:28;28.10;99.90
64689;DHT22;62504;46.070;14.492;2022-08-03T10:19:53;28.20;99.90
64689;DHT22;62504;46.070;14.492;2022-08-03T10:22:25;28.40;99.90
64689;DHT22;62504;46.070;14.492;2022-08-03T10:24:59;28.50;99.90
64689;DHT22;62504;46.070;14.492;2022-08-03T10:27:31;28.60;99.90
64689;DHT22;62504;46.070;14.492;2022-08-03T10:30:01;28.50;99.90
64689;DHT22;62504;46.070;14.492;2022-08-03T10:35:10;28.40;99.90
64689;DHT22;62504;46.070;14.492;2022-08-03T10:37:40;28.20;99.90
64689;DHT22;62504;46.070;14.492;2022-08-03T10:40:10;28.30;99.90
64689;DHT22;62504;46.070;14.492;2022-08-03T10:42:36;28.60;99.90
64689;DHT22;62504;46.070;14.492;2022-08-03T10:45:05;28.40;99.90
64689;DHT22;62504;46.070;14.492;2022-08-03T10:47:32;28.50;99.90
64689;DHT22;62504;46.070;14.492;2022-08-03T10:49:59;28.80;99.90
64689;DHT22;62504;46.070;14.492;2022-08-03T10:52:25;28.80;99.90
64689;DHT22;62504;46.070;14.492;2022-08-03T10:54:51;28.80;99.90
64689;DHT22;62504;46.070;14.492;2022-08-03T10:57:43;28.50;99.90
64689;DHT22;62504;46.070;14.492;2022-08-03T11:00:09;28.10;99.90
64689;DHT22;62504;46.070;14.492;2022-08-03T11:03:02;28.20;99.90
64689;DHT22;62504;46.070;14.492;2022-08-03T11:05:30;28.10;99.90
64689;DHT22;62504;46.070;14.492;2022-08-03T11:08:22;28.00;99.90
64689;DHT22;62504;46.070;14.492;2022-08-03T11:10:50;28.00;99.90
64689;DHT22;62504;46.070;14.492;2022-08-03T11:13:17;28.30;98.80
64689;DHT22;62504;46.070;14.492;2022-08-03T11:15:46;28.60;98.30
64689;DHT22;62504;46.070;14.492;2022-08-03T11:18:13;28.70;98.90
64689;DHT22;62504;46.070;14.492;2022-08-03T11:20:52;28.70;97.90
64689;DHT22;62504;46.070;14.492;2022-08-03T11:23:38;28.50;97.90
64689;DHT22;62504;46.070;14.492;2022-08-03T11:26:18;28.40;98.50
64689;DHT22;62504;46.070;14.492;2022-08-03T11:28:45;28.50;98.60
64689;DHT22;62504;46.070;14.492;2022-08-03T11:34:07;28.50;98.30
64689;DHT22;62504;46.070;14.492;2022-08-03T11:39:41;28.30;98.10
64689;DHT22;62504;46.070;14.492;2022-08-03T11:44:59;28.50;97.80
64689;DHT22;62504;46.070;14.492;2022-08-03T11:47:27;28.50;97.20
64689;DHT22;62504;46.070;14.492;2022-08-03T11:49:54;28.50;97.40
64689;DHT22;62504;46.070;14.492;2022-08-03T11:52:22;28.50;97.00
64689;DHT22;62504;46.070;14.492;2022-08-03T11:54:51;28.60;97.30
64689;DHT22;62504;46.070;14.492;2022-08-03T11:57:31;28.40;96.80
64689;DHT22;62504;46.070;14.492;2022-08-03T11:59:57;28.60;96.60
64689;DHT22;62504;46.070;14.492;2022-08-03T12:02:22;28.60;96.50
64689;DHT22;62504;46.070;14.492;2022-08-03T12:04:58;28.90;97.00
64689;DHT22;62504;46.070;14.492;2022-08-03T12:07:28;28.70;97.50
64689;DHT22;62504;46.070;14.492;2022-08-03T12:10:12;28.80;97.50
64689;DHT22;62504;46.070;14.492;2022-08-03T12:12:39;29.00;98.10
64689;DHT22;62504;46.070;14.492;2022-08-03T12:15:06;29.10;97.50
64689;DHT22;62504;46.070;14.492;2022-08-03T12:17:40;29.10;97.50
64689;DHT22;62504;46.070;14.492;2022-08-03T12:20:08;29.20;97.30
64689;DHT22;62504;46.070;14.492;2022-08-03T12:22:38;29.20;96.80
64689;DHT22;62504;46.070;14.492;2022-08-03T12:25:08;29.20;96.30
64689;DHT22;62504;46.070;14.492;2022-08-03T12:27:34;29.10;95.80
64689;DHT22;62504;46.070;14.492;2022-08-03T12:30:01;29.00;96.30
64689;DHT22;62504;46.070;14.492;2022-08-03T12:32:28;29.10;95.90
64689;DHT22;62504;46.070;14.492;2022-08-03T12:34:54;29.10;96.40
64689;DHT22;62504;46.070;14.492;2022-08-03T12:37:24;29.10;96.50
64689;DHT22;62504;46.070;14.492;2022-08-03T12:39:51;29.20;96.80
64689;DHT22;62504;46.070;14.492;2022-08-03T12:42:17;29.30;96.70
64689;DHT22;62504;46.070;14.492;2022-08-03T12:44:43;29.50;95.90
64689;DHT22;62504;46.070;14.492;2022-08-03T12:47:10;29.50;95.40
64689;DHT22;62504;46.070;14.492;2022-08-03T12:49:47;29.50;95.10
64689;DHT22;62504;46.070;14.492;2022-08-03T12:52:14;29.60;94.70
64689;DHT22;62504;46.070;14.492;2022-08-03T12:54:40;29.40;94.70
64689;DHT22;62504;46.070;14.492;2022-08-03T12:57:11;29.30;94.40
64689;DHT22;62504;46.070;14.492;2022-08-03T12:59:39;29.40;94.60
64689;DHT22;62504;46.070;14.492;2022-08-03T13:02:17;29.50;95.00
64689;DHT22;62504;46.070;14.492;2022-08-03T13:04:44;29.60;93.70
64689;DHT22;62504;46.070;14.492;2022-08-03T13:07:11;29.50;93.80
64689;DHT22;62504;46.070;14.492;2022-08-03T13:09:56;29.40;93.60
64689;DHT22;62504;46.070;14.492;2022-08-03T13:12:23;29.60;92.90
64689;DHT22;62504;46.070;14.492;2022-08-03T13:14:55;29.30;93.20
64689;DHT22;62504;46.070;14.492;2022-08-03T13:17:21;29.40;93.10
64689;DHT22;62504;46.070;14.492;2022-08-03T13:19:48;29.40;92.80
64689;DHT22;62504;46.070;14.492;2022-08-03T13:22:16;29.40;92.60
64689;DHT22;62504;46.070;14.492;2022-08-03T13:24:43;29.30;92.80
64689;DHT22;62504;46.070;14.492;2022-08-03T13:27:09;29.10;93.30
64689;DHT22;62504;46.070;14.492;2022-08-03T13:29:35;29.00;93.30
64689;DHT22;62504;46.070;14.492;2022-08-03T13:32:02;28.90;93.10
64689;DHT22;62504;46.070;14.492;2022-08-03T13:34:27;28.90;93.40
64689;DHT22;62504;46.070;14.492;2022-08-03T13:36:53;28.90;93.60
64689;DHT22;62504;46.070;14.492;2022-08-03T13:39:19;28.80;93.70
64689;DHT22;62504;46.070;14.492;2022-08-03T13:41:45;29.00;92.90
64689;DHT22;62504;46.070;14.492;2022-08-03T13:44:11;28.90;92.80
64689;DHT22;62504;46.070;14.492;2022-08-03T13:46:36;28.90;92.60
64689;DHT22;62504;46.070;14.492;2022-08-03T13:49:02;29.10;92.40
64689;DHT22;62504;46.070;14.492;2022-08-03T13:51:28;29.10;91.90
64689;DHT22;62504;46.070;14.492;2022-08-03T13:53:54;29.20;91.40
64689;DHT22;62504;46.070;14.492;2022-08-03T13:56:20;29.30;91.20
64689;DHT22;62504;46.070;14.492;2022-08-03T13:58:45;29.50;90.70
64689;DHT22;62504;46.070;14.492;2022-08-03T14:01:11;29.40;90.30
64689;DHT22;62504;46.070;14.492;2022-08-03T14:03:37;29.40;90.50
64689;DHT22;62504;46.070;14.492;2022-08-03T14:06:03;29.40;90.80
64689;DHT22;62504;46.070;14.492;2022-08-03T14:08:28;29.50;91.20
64689;DHT22;62504;46.070;14.492;2022-08-03T14:10:54;29.50;91.20
64689;DHT22;62504;46.070;14.492;2022-08-03T14:13:20;29.60;90.80
64689;DHT22;62504;46.070;14.492;2022-08-03T14:15:47;29.60;91.10
64689;DHT22;62504;46.070;14.492;2022-08-03T14:18:13;29.70;90.70
64689;DHT22;62504;46.070;14.492;2022-08-03T14:20:38;29.60;89.50
64689;DHT22;62504;46.070;14.492;2022-08-03T14:23:04;29.50;89.50
64689;DHT22;62504;46.070;14.492;2022-08-03T14:25:31;29.60;90.30
64689;DHT22;62504;46.070;14.492;2022-08-03T14:27:59;29.60;90.00
64689;DHT22;62504;46.070;14.492;2022-08-03T14:30:25;29.60;90.00
64689;DHT22;62504;46.070;14.492;2022-08-03T14:32:50;29.40;90.30
64689;DHT22;62504;46.070;14.492;2022-08-03T14:35:16;29.40;90.50
64689;DHT22;62504;46.070;14.492;2022-08-03T14:37:41;29.40;90.10
64689;DHT22;62504;46.070;14.492;2022-08-03T14:40:07;29.60;90.00
64689;DHT22;62504;46.070;14.492;2022-08-03T14:42:33;29.60;89.70
64689;DHT22;62504;46.070;14.492;2022-08-03T14:44:58;29.40;89.20
64689;DHT22;62504;46.070;14.492;2022-08-03T14:47:24;29.30;88.80
64689;DHT22;62504;46.070;14.492;2022-08-03T14:49:50;29.40;88.30
64689;DHT22;62504;46.070;14.492;2022-08-03T14:52:15;29.40;88.70
64689;DHT22;62504;46.070;14.492;2022-08-03T14:54:41;29.30;88.30
64689;DHT22;62504;46.070;14.492;2022-08-03T14:57:07;29.40;87.60
64689;DHT22;62504;46.070;14.492;2022-08-03T14:59:32;29.50;87.80
64689;DHT22;62504;46.070;14.492;2022-08-03T15:01:58;29.50;86.30
64689;DHT22;62504;46.070;14.492;2022-08-03T15:04:23;29.50;84.70
64689;DHT22;62504;46.070;14.492;2022-08-03T15:06:49;29.50;86.30
64689;DHT22;62504;46.070;14.492;2022-08-03T15:09:15;29.50;85.80
64689;DHT22;62504;46.070;14.492;2022-08-03T15:11:41;29.60;85.30
64689;DHT22;62504;46.070;14.492;2022-08-03T15:14:07;29.60;86.90
64689;DHT22;62504;46.070;14.492;2022-08-03T15:16:32;29.60;87.10
64689;DHT22;62504;46.070;14.492;2022-08-03T15:18:58;29.60;87.20
64689;DHT22;62504;46.070;14.492;2022-08-03T15:21:25;29.60;85.20
64689;DHT22;62504;46.070;14.492;2022-08-03T15:23:51;29.50;82.90
64689;DHT22;62504;46.070;14.492;2022-08-03T15:26:17;29.60;82.30
64689;DHT22;62504;46.070;14.492;2022-08-03T15:28:42;29.50;82.40
64689;DHT22;62504;46.070;14.492;2022-08-03T15:31:08;29.50;84.20
64689;DHT22;62504;46.070;14.492;2022-08-03T15:33:34;29.50;83.70
64689;DHT22;62504;46.070;14.492;2022-08-03T15:35:59;29.50;82.90
64689;DHT22;62504;46.070;14.492;2022-08-03T15:38:25;29.50;84.00
64689;DHT22;62504;46.070;14.492;2022-08-03T15:40:50;29.40;85.10
64689;DHT22;62504;46.070;14.492;2022-08-03T15:43:20;29.40;83.60
64689;DHT22;62504;46.070;14.492;2022-08-03T15:45:46;29.40;83.60
64689;DHT22;62504;46.070;14.492;2022-08-03T15:48:12;29.40;81.80
64689;DHT22;62504;46.070;14.492;2022-08-03T15:50:37;29.50;80.60
64689;DHT22;62504;46.070;14.492;2022-08-03T15:53:03;29.50;80.80
64689;DHT22;62504;46.070;14.492;2022-08-03T15:55:29;29.50;83.70
64689;DHT22;62504;46.070;14.492;2022-08-03T15:57:56;29.50;84.70
64689;DHT22;62504;46.070;14.492;2022-08-03T16:00:22;29.40;84.80